sensor_id;sensor_type;location;lat;lon;timestamp;P1;durP1;ratioP1;P2;durP2;ratioP2
11111;SDS011;5609;49.466;8.468;2022-07-29T00:00:11;4.20;;;3.10;;
11111;SDS011;5609;49.466;8.468;2022-07-29T00:02:38;5.93;;;3.53;;
11111;SDS011;5609;49.466;8.468;2022-07-29T00:05:05;5.33;;;3.63;;
11111;SDS011;5609;49.466;8.468;2022-07-29T00:07:34;5.50;;;3.80;;
11111;SDS011;5609;49.466;8.468;2022-07-29T00:10:01;3.23;;;2.87;;
11111;SDS011;5609;49.466;8.468;2022-07-29T00:12:29;3.77;;;3.10;;
11111;SDS011;5609;49.466;8.468;2022-07-29T00:14:56;4.50;;;3.10;;
11111;SDS011;5609;49.466;8.468;2022-07-29T00:17:23;3.97;;;3.27;;
11111;SDS011;5609;49.466;8.468;2022-07-29T00:19:50;5.17;;;3.10;;
11111;SDS011;5609;49.466;8.468;2022-07-29T00:22:17;3.70;;;3.20;;
11111;SDS011;5609;49.466;8.468;2022-07-29T00:24:44;3.30;;;3.00;;
11111;SDS011;5609;49.466;8.468;2022-07-29T00:27:13;6.77;;;3.10;;
11111;SDS011;5609;49.466;8.468;2022-07-29T00:29:41;5.17;;;2.90;;
11111;SDS011;5609;49.466;8.468;2022-07-29T00:32:08;4.80;;;3.33;;
11111;SDS011;5609;49.466;8.468;2022-07-29T00:34:34;5.73;;;3.43;;
11111;SDS011;5609;49.466;8.468;2022-07-29T00:37:18;4.80;;;3.10;;
11111;SDS011;5609;49.466;8.468;2022-07-29T00:39:45;5.30;;;3.57;;
11111;SDS011;5609;49.466;8.468;2022-07-29T00:42:12;4.67;;;3.20;;
11111;SDS011;5609;49.466;8.468;2022-07-29T00:44:41;4.93;;;3.50;;
11111;SDS011;5609;49.466;8.468;2022-07-29T00:47:08;4.40;;;3.37;;
11111;SDS011;5609;49.466;8.468;2022-07-29T00:49:37;3.93;;;3.40;;
11111;SDS011;5609;49.466;8.468;2022-07-29T00:52:05;4.43;;;3.13;;
11111;SDS011;5609;49.466;8.468;2022-07-29T00:54:33;4.90;;;3.33;;
11111;SDS011;5609;49.466;8.468;2022-07-29T00:57:00;3.77;;;3.30;;
11111;SDS011;5609;49.466;8.468;2022-07-29T00:59:28;3.73;;;3.07;;
11111;SDS011;5609;49.466;8.468;2022-07-29T01:01:56;4.73;;;3.10;;
11111;SDS011;5609;49.466;8.468;2022-07-29T01:04:23;5.77;;;3.20;;
11111;SDS011;5609;49.466;8.468;2022-07-29T01:06:50;5.77;;;3.60;;
11111;SDS011;5609;49.466;8.468;2022-07-29T01:09:20;6.63;;;3.33;;
11111;SDS011;5609;49.466;8.468;2022-07-29T01:11:48;6.27;;;3.43;;
11111;SDS011;5609;49.466;8.468;2022-07-29T01:14:16;4.80;;;3.20;;
11111;SDS011;5609;49.466;8.468;2022-07-29T01:16:45;5.50;;;3.20;;
11111;SDS011;5609;49.466;8.468;2022-07-29T01:19:23;5.20;;;3.90;;
11111;SDS011;5609;49.466;8.468;2022-07-29T01:22:17;4.50;;;3.40;;
11111;SDS011;5609;49.466;8.468;2022-07-29T01:25:05;4.27;;;3.50;;
11111;SDS011;5609;49.466;8.468;2022-07-29T01:27:44;6.17;;;3.57;;
11111;SDS011;5609;49.466;8.468;2022-07-29T01:30:25;4.23;;;3.67;;
11111;SDS011;5609;49.466;8.468;2022-07-29T01:32:56;5.40;;;3.90;;
11111;SDS011;5609;49.466;8.468;2022-07-29T01:35:28;5.20;;;3.60;;
11111;SDS011;5609;49.466;8.468;2022-07-29T01:38:01;6.90;;;3.87;;
11111;SDS011;5609;49.466;8.468;2022-07-29T01:40:35;4.63;;;3.97;;
11111;SDS011;5609;49.466;8.468;2022-07-29T01:43:09;6.07;;;3.77;;
11111;SDS011;5609;49.466;8.468;2022-07-29T01:45:40;5.00;;;3.80;;
11111;SDS011;5609;49.466;8.468;2022-07-29T01:48:11;6.57;;;3.43;;
11111;SDS011;5609;49.466;8.468;2022-07-29T01:50:45;6.83;;;3.97;;
11111;SDS011;5609;49.466;8.468;2022-07-29T01:53:15;4.20;;;3.60;;
11111;SDS011;5609;49.466;8.468;2022-07-29T01:55:46;7.63;;;3.83;;
11111;SDS011;5609;49.466;8.468;2022-07-29T01:58:17;7.23;;;3.43;;
11111;SDS011;5609;49.466;8.468;2022-07-29T02:00:48;4.30;;;3.20;;
11111;SDS011;5609;49.466;8.468;2022-07-29T02:03:15;6.17;;;3.40;;
11111;SDS011;5609;49.466;8.468;2022-07-29T02:05:45;4.23;;;3.00;;
11111;SDS011;5609;49.466;8.468;2022-07-29T02:08:14;7.13;;;3.80;;
11111;SDS011;5609;49.466;8.468;2022-07-29T02:10:41;5.93;;;3.50;;
11111;SDS011;5609;49.466;8.468;2022-07-29T02:13:10;5.83;;;3.70;;
11111;SDS011;5609;49.466;8.468;2022-07-29T02:15:39;3.77;;;2.93;;
11111;SDS011;5609;49.466;8.468;2022-07-29T02:18:11;4.90;;;3.10;;
11111;SDS011;5609;49.466;8.468;2022-07-29T02:20:42;5.17;;;3.23;;
11111;SDS011;5609;49.466;8.468;2022-07-29T02:23:11;5.17;;;3.50;;
11111;SDS011;5609;49.466;8.468;2022-07-29T02:25:40;5.77;;;3.43;;
11111;SDS011;5609;49.466;8.468;2022-07-29T02:28:14;6.70;;;3.83;;
11111;SDS011;5609;49.466;8.468;2022-07-29T02:30:45;9.30;;;4.07;;
11111;SDS011;5609;49.466;8.468;2022-07-29T02:33:15;5.67;;;3.50;;
11111;SDS011;5609;49.466;8.468;2022-07-29T02:35:45;7.60;;;3.50;;
11111;SDS011;5609;49.466;8.468;2022-07-29T02:38:14;7.47;;;3.77;;
11111;SDS011;5609;49.466;8.468;2022-07-29T02:41:08;7.63;;;4.20;;
11111;SDS011;5609;49.466;8.468;2022-07-29T02:43:46;8.63;;;4.07;;
11111;SDS011;5609;49.466;8.468;2022-07-29T02:46:18;6.47;;;4.10;;
11111;SDS011;5609;49.466;8.468;2022-07-29T02:48:54;9.07;;;3.87;;
11111;SDS011;5609;49.466;8.468;2022-07-29T02:51:27;8.57;;;4.43;;
11111;SDS011;5609;49.466;8.468;2022-07-29T02:54:02;6.47;;;4.20;;
11111;SDS011;5609;49.466;8.468;2022-07-29T02:56:35;6.93;;;4.30;;
11111;SDS011;5609;49.466;8.468;2022-07-29T02:59:06;6.53;;;3.90;;
11111;SDS011;5609;49.466;8.468;2022-07-29T03:01:35;6.47;;;4.50;;
11111;SDS011;5609;49.466;8.468;2022-07-29T03:04:13;7.43;;;4.00;;
11111;SDS011;5609;49.466;8.468;2022-07-29T03:06:47;7.70;;;3.93;;
11111;SDS011;5609;49.466;8.468;2022-07-29T03:09:19;6.80;;;3.97;;
11111;SDS011;5609;49.466;8.468;2022-07-29T03:11:49;5.87;;;3.80;;
11111;SDS011;5609;49.466;8.468;2022-07-29T03:14:19;5.97;;;4.00;;
11111;SDS011;5609;49.466;8.468;2022-07-29T03:16:48;5.87;;;3.97;;
11111;SDS011;5609;49.466;8.468;2022-07-29T03:19:17;9.80;;;4.33;;
11111;SDS011;5609;49.466;8.468;2022-07-29T03:21:45;7.47;;;3.80;;
11111;SDS011;5609;49.466;8.468;2022-07-29T03:24:27;8.27;;;3.90;;
11111;SDS011;5609;49.466;8.468;2022-07-29T03:27:00;8.47;;;3.77;;
11111;SDS011;5609;49.466;8.468;2022-07-29T03:29:28;7.67;;;3.73;;
11111;SDS011;5609;49.466;8.468;2022-07-29T03:31:55;6.60;;;3.60;;
11111;SDS011;5609;49.466;8.468;2022-07-29T03:34:24;6.40;;;3.50;;
11111;SDS011;5609;49.466;8.468;2022-07-29T03:36:57;6.50;;;3.90;;
11111;SDS011;5609;49.466;8.468;2022-07-29T03:39:24;7.23;;;4.20;;
11111;SDS011;5609;49.466;8.468;2022-07-29T03:41:53;5.47;;;3.50;;
11111;SDS011;5609;49.466;8.468;2022-07-29T03:44:21;7.33;;;3.90;;
11111;SDS011;5609;49.466;8.468;2022-07-29T03:46:50;5.87;;;3.53;;
11111;SDS011;5609;49.466;8.468;2022-07-29T03:49:19;5.70;;;3.57;;
11111;SDS011;5609;49.466;8.468;2022-07-29T03:51:49;4.17;;;3.30;;
11111;SDS011;5609;49.466;8.468;2022-07-29T03:54:15;6.53;;;3.57;;
11111;SDS011;5609;49.466;8.468;2022-07-29T03:56:43;6.47;;;3.50;;
11111;SDS011;5609;49.466;8.468;2022-07-29T03:59:12;4.33;;;3.30;;
11111;SDS011;5609;49.466;8.468;2022-07-29T04:01:41;10.23;;;4.27;;
11111;SDS011;5609;49.466;8.468;2022-07-29T04:04:08;4.90;;;3.37;;
11111;SDS011;5609;49.466;8.468;2022-07-29T04:06:39;5.57;;;3.50;;
11111;SDS011;5609;49.466;8.468;2022-07-29T04:09:08;7.67;;;3.80;;
11111;SDS011;5609;49.466;8.468;2022-07-29T04:11:35;6.07;;;3.70;;
11111;SDS011;5609;49.466;8.468;2022-07-29T04:14:03;7.90;;;3.80;;
11111;SDS011;5609;49.466;8.468;2022-07-29T04:16:30;4.60;;;3.60;;
11111;SDS011;5609;49.466;8.468;2022-07-29T04:18:57;4.57;;;3.40;;
11111;SDS011;5609;49.466;8.468;2022-07-29T04:21:25;4.90;;;3.50;;
11111;SDS011;5609;49.466;8.468;2022-07-29T04:23:51;6.30;;;3.60;;
11111;SDS011;5609;49.466;8.468;2022-07-29T04:26:20;7.43;;;3.60;;
11111;SDS011;5609;49.466;8.468;2022-07-29T04:28:47;4.90;;;3.43;;
11111;SDS011;5609;49.466;8.468;2022-07-29T04:31:13;3.77;;;3.20;;
11111;SDS011;5609;49.466;8.468;2022-07-29T04:33:40;9.17;;;3.30;;
11111;SDS011;5609;49.466;8.468;2022-07-29T04:36:07;5.57;;;3.40;;
11111;SDS011;5609;49.466;8.468;2022-07-29T04:38:36;10.93;;;3.97;;
11111;SDS011;5609;49.466;8.468;2022-07-29T04:41:03;8.07;;;3.77;;
11111;SDS011;5609;49.466;8.468;2022-07-29T04:43:31;8.07;;;3.40;;
11111;SDS011;5609;49.466;8.468;2022-07-29T04:45:58;5.80;;;3.93;;
11111;SDS011;5609;49.466;8.468;2022-07-29T04:48:25;7.53;;;3.90;;
11111;SDS011;5609;49.466;8.468;2022-07-29T04:50:52;7.20;;;3.20;;
11111;SDS011;5609;49.466;8.468;2022-07-29T04:53:19;5.93;;;3.60;;
11111;SDS011;5609;49.466;8.468;2022-07-29T04:55:46;5.87;;;3.43;;
11111;SDS011;5609;49.466;8.468;2022-07-29T04:58:13;7.40;;;3.43;;
11111;SDS011;5609;49.466;8.468;2022-07-29T05:00:41;7.17;;;3.50;;
11111;SDS011;5609;49.466;8.468;2022-07-29T05:03:08;8.53;;;3.40;;
11111;SDS011;5609;49.466;8.468;2022-07-29T05:05:35;7.27;;;3.50;;
11111;SDS011;5609;49.466;8.468;2022-07-29T05:08:02;8.10;;;3.40;;
11111;SDS011;5609;49.466;8.468;2022-07-29T05:10:29;10.03;;;3.33;;
11111;SDS011;5609;49.466;8.468;2022-07-29T05:12:55;6.60;;;2.90;;
11111;SDS011;5609;49.466;8.468;2022-07-29T05:15:22;7.70;;;3.43;;
11111;SDS011;5609;49.466;8.468;2022-07-29T05:17:50;4.17;;;3.00;;
11111;SDS011;5609;49.466;8.468;2022-07-29T05:20:17;5.57;;;3.20;;
11111;SDS011;5609;49.466;8.468;2022-07-29T05:22:50;6.83;;;3.20;;
11111;SDS011;5609;49.466;8.468;2022-07-29T05:25:17;7.50;;;3.00;;
11111;SDS011;5609;49.466;8.468;2022-07-29T05:27:44;7.70;;;3.30;;
11111;SDS011;5609;49.466;8.468;2022-07-29T05:30:11;5.70;;;3.10;;
11111;SDS011;5609;49.466;8.468;2022-07-29T05:32:39;7.83;;;3.27;;
11111;SDS011;5609;49.466;8.468;2022-07-29T05:35:07;5.83;;;2.93;;
11111;SDS011;5609;49.466;8.468;2022-07-29T05:37:34;6.77;;;2.77;;
11111;SDS011;5609;49.466;8.468;2022-07-29T05:40:01;6.17;;;3.20;;
11111;SDS011;5609;49.466;8.468;2022-07-29T05:42:28;6.63;;;3.50;;
11111;SDS011;5609;49.466;8.468;2022-07-29T05:44:55;5.90;;;3.50;;
11111;SDS011;5609;49.466;8.468;2022-07-29T05:47:22;7.70;;;3.40;;
11111;SDS011;5609;49.466;8.468;2022-07-29T05:49:49;6.70;;;3.30;;
11111;SDS011;5609;49.466;8.468;2022-07-29T05:52:18;6.67;;;3.20;;
11111;SDS011;5609;49.466;8.468;2022-07-29T05:54:45;6.57;;;3.10;;
11111;SDS011;5609;49.466;8.468;2022-07-29T05:57:14;5.97;;;3.40;;
11111;SDS011;5609;49.466;8.468;2022-07-29T05:59:41;6.80;;;3.10;;
11111;SDS011;5609;49.466;8.468;2022-07-29T06:02:08;6.43;;;3.47;;
11111;SDS011;5609;49.466;8.468;2022-07-29T06:04:36;6.63;;;3.40;;
11111;SDS011;5609;49.466;8.468;2022-07-29T06:07:03;6.67;;;3.50;;
11111;SDS011;5609;49.466;8.468;2022-07-29T06:09:31;6.03;;;3.07;;
11111;SDS011;5609;49.466;8.468;2022-07-29T06:12:01;10.17;;;3.30;;
11111;SDS011;5609;49.466;8.468;2022-07-29T06:14:28;7.07;;;3.43;;
11111;SDS011;5609;49.466;8.468;2022-07-29T06:16:55;7.00;;;3.40;;
11111;SDS011;5609;49.466;8.468;2022-07-29T06:19:22;6.13;;;3.40;;
11111;SDS011;5609;49.466;8.468;2022-07-29T06:21:49;8.63;;;3.53;;
11111;SDS011;5609;49.466;8.468;2022-07-29T06:24:16;8.53;;;3.40;;
11111;SDS011;5609;49.466;8.468;2022-07-29T06:26:44;6.60;;;3.10;;
11111;SDS011;5609;49.466;8.468;2022-07-29T06:29:11;6.77;;;3.33;;
11111;SDS011;5609;49.466;8.468;2022-07-29T06:31:38;6.83;;;3.40;;
11111;SDS011;5609;49.466;8.468;2022-07-29T06:34:05;6.97;;;3.20;;
11111;SDS011;5609;49.466;8.468;2022-07-29T06:36:33;5.53;;;3.53;;
11111;SDS011;5609;49.466;8.468;2022-07-29T06:39:01;8.67;;;3.60;;
11111;SDS011;5609;49.466;8.468;2022-07-29T06:41:30;5.03;;;3.80;;
11111;SDS011;5609;49.466;8.468;2022-07-29T06:43:58;5.87;;;3.37;;
11111;SDS011;5609;49.466;8.468;2022-07-29T06:46:25;8.27;;;3.57;;
11111;SDS011;5609;49.466;8.468;2022-07-29T06:48:52;7.00;;;3.80;;
11111;SDS011;5609;49.466;8.468;2022-07-29T06:51:20;8.03;;;3.60;;
11111;SDS011;5609;49.466;8.468;2022-07-29T06:53:47;4.93;;;3.40;;
11111;SDS011;5609;49.466;8.468;2022-07-29T06:56:13;5.30;;;3.50;;
11111;SDS011;5609;49.466;8.468;2022-07-29T06:58:40;6.30;;;3.33;;
11111;SDS011;5609;49.466;8.468;2022-07-29T07:01:08;7.13;;;3.40;;
11111;SDS011;5609;49.466;8.468;2022-07-29T07:03:35;8.87;;;3.80;;
11111;SDS011;5609;49.466;8.468;2022-07-29T07:06:02;3.93;;;3.47;;
11111;SDS011;5609;49.466;8.468;2022-07-29T07:08:29;4.17;;;3.10;;
11111;SDS011;5609;49.466;8.468;2022-07-29T07:10:56;5.53;;;3.60;;
11111;SDS011;5609;49.466;8.468;2022-07-29T07:13:23;4.37;;;3.50;;
11111;SDS011;5609;49.466;8.468;2022-07-29T07:15:50;4.83;;;3.53;;
11111;SDS011;5609;49.466;8.468;2022-07-29T07:18:18;5.87;;;3.63;;
11111;SDS011;5609;49.466;8.468;2022-07-29T07:20:45;4.70;;;3.70;;
11111;SDS011;5609;49.466;8.468;2022-07-29T07:23:17;5.90;;;3.50;;
11111;SDS011;5609;49.466;8.468;2022-07-29T07:25:44;3.97;;;3.27;;
11111;SDS011;5609;49.466;8.468;2022-07-29T07:28:11;4.67;;;3.40;;
11111;SDS011;5609;49.466;8.468;2022-07-29T07:30:40;3.60;;;3.20;;
11111;SDS011;5609;49.466;8.468;2022-07-29T07:33:09;5.17;;;3.50;;
11111;SDS011;5609;49.466;8.468;2022-07-29T07:35:38;5.77;;;3.57;;
11111;SDS011;5609;49.466;8.468;2022-07-29T07:38:04;6.43;;;3.20;;
11111;SDS011;5609;49.466;8.468;2022-07-29T07:40:36;5.63;;;3.13;;
11111;SDS011;5609;49.466;8.468;2022-07-29T07:43:04;7.60;;;3.30;;
11111;SDS011;5609;49.466;8.468;2022-07-29T07:45:34;4.70;;;3.20;;
11111;SDS011;5609;49.466;8.468;2022-07-29T07:48:02;4.37;;;3.27;;
11111;SDS011;5609;49.466;8.468;2022-07-29T07:50:29;5.43;;;3.43;;
11111;SDS011;5609;49.466;8.468;2022-07-29T07:53:00;3.83;;;3.23;;
11111;SDS011;5609;49.466;8.468;2022-07-29T07:55:27;3.80;;;3.40;;
11111;SDS011;5609;49.466;8.468;2022-07-29T07:57:54;5.00;;;3.40;;
11111;SDS011;5609;49.466;8.468;2022-07-29T08:00:24;9.00;;;3.70;;
11111;SDS011;5609;49.466;8.468;2022-07-29T08:02:54;5.53;;;3.37;;
11111;SDS011;5609;49.466;8.468;2022-07-29T08:05:21;4.63;;;3.23;;
11111;SDS011;5609;49.466;8.468;2022-07-29T08:07:50;5.63;;;3.60;;
11111;SDS011;5609;49.466;8.468;2022-07-29T08:10:20;5.97;;;3.67;;
11111;SDS011;5609;49.466;8.468;2022-07-29T08:13:01;4.10;;;3.70;;
11111;SDS011;5609;49.466;8.468;2022-07-29T08:15:28;4.10;;;3.57;;
11111;SDS011;5609;49.466;8.468;2022-07-29T08:17:59;4.23;;;3.50;;
11111;SDS011;5609;49.466;8.468;2022-07-29T08:20:28;5.17;;;3.90;;
11111;SDS011;5609;49.466;8.468;2022-07-29T08:22:57;4.30;;;3.60;;
11111;SDS011;5609;49.466;8.468;2022-07-29T08:25:25;6.63;;;3.90;;
11111;SDS011;5609;49.466;8.468;2022-07-29T08:27:53;4.70;;;3.40;;
11111;SDS011;5609;49.466;8.468;2022-07-29T08:30:22;4.90;;;3.50;;
11111;SDS011;5609;49.466;8.468;2022-07-29T08:32:52;4.93;;;3.60;;
11111;SDS011;5609;49.466;8.468;2022-07-29T08:35:19;5.30;;;3.43;;
11111;SDS011;5609;49.466;8.468;2022-07-29T08:37:47;5.10;;;3.33;;
11111;SDS011;5609;49.466;8.468;2022-07-29T08:40:13;4.97;;;3.87;;
11111;SDS011;5609;49.466;8.468;2022-07-29T08:42:42;7.40;;;3.97;;
11111;SDS011;5609;49.466;8.468;2022-07-29T08:45:11;4.43;;;3.40;;
11111;SDS011;5609;49.466;8.468;2022-07-29T08:47:39;3.70;;;3.40;;
11111;SDS011;5609;49.466;8.468;2022-07-29T08:50:06;3.90;;;3.50;;
11111;SDS011;5609;49.466;8.468;2022-07-29T08:52:35;7.73;;;4.10;;
11111;SDS011;5609;49.466;8.468;2022-07-29T08:55:03;6.77;;;3.70;;
11111;SDS011;5609;49.466;8.468;2022-07-29T08:57:31;4.87;;;3.53;;
11111;SDS011;5609;49.466;8.468;2022-07-29T09:00:07;4.47;;;3.50;;
11111;SDS011;5609;49.466;8.468;2022-07-29T09:02:36;4.03;;;3.63;;
11111;SDS011;5609;49.466;8.468;2022-07-29T09:05:09;6.50;;;3.77;;
11111;SDS011;5609;49.466;8.468;2022-07-29T09:07:36;5.87;;;3.70;;
11111;SDS011;5609;49.466;8.468;2022-07-29T09:10:12;5.47;;;3.47;;
11111;SDS011;5609;49.466;8.468;2022-07-29T09:12:39;4.07;;;3.40;;
11111;SDS011;5609;49.466;8.468;2022-07-29T09:15:07;6.00;;;3.60;;
11111;SDS011;5609;49.466;8.468;2022-07-29T09:17:44;4.13;;;3.73;;
11111;SDS011;5609;49.466;8.468;2022-07-29T09:20:14;4.93;;;4.00;;
11111;SDS011;5609;49.466;8.468;2022-07-29T09:22:42;5.50;;;3.67;;
11111;SDS011;5609;49.466;8.468;2022-07-29T09:25:10;5.47;;;3.53;;
11111;SDS011;5609;49.466;8.468;2022-07-29T09:27:38;7.90;;;3.90;;
11111;SDS011;5609;49.466;8.468;2022-07-29T09:30:05;7.87;;;4.50;;
11111;SDS011;5609;49.466;8.468;2022-07-29T09:35:22;5.93;;;3.90;;
11111;SDS011;5609;49.466;8.468;2022-07-29T09:37:54;8.27;;;3.63;;
11111;SDS011;5609;49.466;8.468;2022-07-29T09:40:23;5.83;;;3.80;;
11111;SDS011;5609;49.466;8.468;2022-07-29T09:42:52;4.30;;;3.30;;
11111;SDS011;5609;49.466;8.468;2022-07-29T09:45:28;5.33;;;3.70;;
11111;SDS011;5609;49.466;8.468;2022-07-29T09:47:56;5.53;;;3.43;;
11111;SDS011;5609;49.466;8.468;2022-07-29T09:50:34;6.80;;;3.70;;
11111;SDS011;5609;49.466;8.468;2022-07-29T09:53:02;5.73;;;3.63;;
11111;SDS011;5609;49.466;8.468;2022-07-29T09:55:29;6.13;;;3.33;;
11111;SDS011;5609;49.466;8.468;2022-07-29T10:00:46;6.30;;;3.50;;
11111;SDS011;5609;49.466;8.468;2022-07-29T10:03:14;4.47;;;3.80;;
11111;SDS011;5609;49.466;8.468;2022-07-29T10:05:42;4.53;;;3.50;;
11111;SDS011;5609;49.466;8.468;2022-07-29T10:08:10;5.57;;;3.60;;
11111;SDS011;5609;49.466;8.468;2022-07-29T10:10:39;7.07;;;3.60;;
11111;SDS011;5609;49.466;8.468;2022-07-29T10:13:08;6.93;;;3.70;;
11111;SDS011;5609;49.466;8.468;2022-07-29T10:15:37;4.57;;;3.60;;
11111;SDS011;5609;49.466;8.468;2022-07-29T10:18:08;5.90;;;3.50;;
11111;SDS011;5609;49.466;8.468;2022-07-29T10:20:35;5.57;;;3.40;;
11111;SDS011;5609;49.466;8.468;2022-07-29T10:23:03;4.80;;;3.60;;
11111;SDS011;5609;49.466;8.468;2022-07-29T10:25:30;4.87;;;3.37;;
11111;SDS011;5609;49.466;8.468;2022-07-29T10:27:57;3.67;;;3.27;;
11111;SDS011;5609;49.466;8.468;2022-07-29T10:30:25;4.80;;;3.70;;
11111;SDS011;5609;49.466;8.468;2022-07-29T10:35:44;5.50;;;3.60;;
11111;SDS011;5609;49.466;8.468;2022-07-29T10:38:27;5.90;;;3.53;;
11111;SDS011;5609;49.466;8.468;2022-07-29T10:41:09;4.50;;;3.20;;
11111;SDS011;5609;49.466;8.468;2022-07-29T10:44:00;5.93;;;3.60;;
11111;SDS011;5609;49.466;8.468;2022-07-29T10:46:28;5.30;;;3.43;;
11111;SDS011;5609;49.466;8.468;2022-07-29T10:49:06;4.33;;;3.60;;
11111;SDS011;5609;49.466;8.468;2022-07-29T10:57:17;4.73;;;3.40;;
11111;SDS011;5609;49.466;8.468;2022-07-29T10:59:46;4.80;;;3.30;;
11111;SDS011;5609;49.466;8.468;2022-07-29T11:05:21;5.47;;;3.37;;
11111;SDS011;5609;49.466;8.468;2022-07-29T11:10:45;7.10;;;3.47;;
11111;SDS011;5609;49.466;8.468;2022-07-29T11:13:13;3.60;;;3.30;;
11111;SDS011;5609;49.466;8.468;2022-07-29T11:16:20;7.33;;;3.30;;
11111;SDS011;5609;49.466;8.468;2022-07-29T11:21:47;6.50;;;3.50;;
11111;SDS011;5609;49.466;8.468;2022-07-29T11:24:16;5.87;;;3.50;;
11111;SDS011;5609;49.466;8.468;2022-07-29T11:26:45;5.87;;;3.50;;
11111;SDS011;5609;49.466;8.468;2022-07-29T11:29:47;4.53;;;3.50;;
11111;SDS011;5609;49.466;8.468;2022-07-29T11:32:22;5.20;;;3.20;;
11111;SDS011;5609;49.466;8.468;2022-07-29T11:35:10;5.67;;;3.30;;
11111;SDS011;5609;49.466;8.468;2022-07-29T11:37:39;4.83;;;3.00;;
11111;SDS011;5609;49.466;8.468;2022-07-29T11:40:15;3.87;;;3.37;;
11111;SDS011;5609;49.466;8.468;2022-07-29T11:42:47;7.10;;;3.27;;
11111;SDS011;5609;49.466;8.468;2022-07-29T11:45:18;11.90;;;4.03;;
11111;SDS011;5609;49.466;8.468;2022-07-29T11:47:47;10.10;;;3.67;;
11111;SDS011;5609;49.466;8.468;2022-07-29T11:50:27;10.23;;;3.50;;
11111;SDS011;5609;49.466;8.468;2022-07-29T11:53:00;4.43;;;3.30;;
11111;SDS011;5609;49.466;8.468;2022-07-29T11:55:28;6.17;;;3.33;;
11111;SDS011;5609;49.466;8.468;2022-07-29T11:57:56;8.53;;;3.40;;
11111;SDS011;5609;49.466;8.468;2022-07-29T12:00:28;7.27;;;3.40;;
11111;SDS011;5609;49.466;8.468;2022-07-29T12:02:56;5.07;;;3.20;;
11111;SDS011;5609;49.466;8.468;2022-07-29T12:05:34;6.23;;;3.07;;
11111;SDS011;5609;49.466;8.468;2022-07-29T12:08:06;4.33;;;3.20;;
11111;SDS011;5609;49.466;8.468;2022-07-29T12:10:34;5.07;;;3.00;;
11111;SDS011;5609;49.466;8.468;2022-07-29T12:13:01;5.27;;;3.20;;
11111;SDS011;5609;49.466;8.468;2022-07-29T12:15:32;4.57;;;3.10;;
11111;SDS011;5609;49.466;8.468;2022-07-29T12:18:08;9.43;;;3.20;;
11111;SDS011;5609;49.466;8.468;2022-07-29T12:20:36;5.50;;;2.90;;
11111;SDS011;5609;49.466;8.468;2022-07-29T12:23:05;4.03;;;2.80;;
11111;SDS011;5609;49.466;8.468;2022-07-29T12:25:34;5.37;;;3.20;;
11111;SDS011;5609;49.466;8.468;2022-07-29T12:28:03;4.30;;;2.80;;
11111;SDS011;5609;49.466;8.468;2022-07-29T12:30:34;3.90;;;2.87;;
11111;SDS011;5609;49.466;8.468;2022-07-29T12:33:10;4.23;;;2.70;;
11111;SDS011;5609;49.466;8.468;2022-07-29T12:35:42;4.30;;;2.70;;
11111;SDS011;5609;49.466;8.468;2022-07-29T12:38:12;4.90;;;2.80;;
11111;SDS011;5609;49.466;8.468;2022-07-29T12:40:40;4.70;;;2.83;;
11111;SDS011;5609;49.466;8.468;2022-07-29T12:43:08;3.60;;;2.90;;
11111;SDS011;5609;49.466;8.468;2022-07-29T12:45:36;5.47;;;3.03;;
11111;SDS011;5609;49.466;8.468;2022-07-29T12:48:04;5.77;;;3.07;;
11111;SDS011;5609;49.466;8.468;2022-07-29T12:50:33;3.50;;;2.83;;
11111;SDS011;5609;49.466;8.468;2022-07-29T12:53:10;4.60;;;3.20;;
11111;SDS011;5609;49.466;8.468;2022-07-29T12:55:40;3.53;;;3.00;;
11111;SDS011;5609;49.466;8.468;2022-07-29T12:58:08;4.00;;;2.80;;
11111;SDS011;5609;49.466;8.468;2022-07-29T13:00:35;5.33;;;3.13;;
11111;SDS011;5609;49.466;8.468;2022-07-29T13:03:02;6.83;;;3.20;;
11111;SDS011;5609;49.466;8.468;2022-07-29T13:05:38;3.67;;;2.97;;
11111;SDS011;5609;49.466;8.468;2022-07-29T13:08:09;4.43;;;2.77;;
11111;SDS011;5609;49.466;8.468;2022-07-29T13:10:39;5.70;;;3.30;;
11111;SDS011;5609;49.466;8.468;2022-07-29T13:13:07;4.33;;;3.20;;
11111;SDS011;5609;49.466;8.468;2022-07-29T13:15:36;4.50;;;3.30;;
11111;SDS011;5609;49.466;8.468;2022-07-29T13:18:04;4.10;;;3.20;;
11111;SDS011;5609;49.466;8.468;2022-07-29T13:20:32;5.40;;;3.37;;
11111;SDS011;5609;49.466;8.468;2022-07-29T13:22:59;4.47;;;3.00;;
11111;SDS011;5609;49.466;8.468;2022-07-29T13:25:28;4.70;;;3.00;;
11111;SDS011;5609;49.466;8.468;2022-07-29T13:27:57;3.20;;;2.90;;
11111;SDS011;5609;49.466;8.468;2022-07-29T13:30:24;3.60;;;2.87;;
11111;SDS011;5609;49.466;8.468;2022-07-29T13:32:51;3.50;;;3.00;;
11111;SDS011;5609;49.466;8.468;2022-07-29T13:35:20;4.33;;;2.80;;
11111;SDS011;5609;49.466;8.468;2022-07-29T13:37:46;3.47;;;3.07;;
11111;SDS011;5609;49.466;8.468;2022-07-29T13:40:14;5.20;;;2.97;;
11111;SDS011;5609;49.466;8.468;2022-07-29T13:42:42;3.53;;;3.10;;
11111;SDS011;5609;49.466;8.468;2022-07-29T13:45:09;5.07;;;2.90;;
11111;SDS011;5609;49.466;8.468;2022-07-29T13:47:37;3.90;;;3.00;;
11111;SDS011;5609;49.466;8.468;2022-07-29T13:50:04;3.90;;;2.97;;
11111;SDS011;5609;49.466;8.468;2022-07-29T13:52:33;4.47;;;2.90;;
11111;SDS011;5609;49.466;8.468;2022-07-29T13:55:00;4.80;;;3.10;;
11111;SDS011;5609;49.466;8.468;2022-07-29T13:57:27;4.00;;;2.70;;
11111;SDS011;5609;49.466;8.468;2022-07-29T13:59:56;3.70;;;2.47;;
11111;SDS011;5609;49.466;8.468;2022-07-29T14:02:23;5.37;;;3.10;;
11111;SDS011;5609;49.466;8.468;2022-07-29T14:04:49;5.10;;;3.00;;
11111;SDS011;5609;49.466;8.468;2022-07-29T14:07:16;3.23;;;2.77;;
11111;SDS011;5609;49.466;8.468;2022-07-29T14:09:43;3.37;;;2.80;;
11111;SDS011;5609;49.466;8.468;2022-07-29T14:12:10;3.93;;;2.60;;
11111;SDS011;5609;49.466;8.468;2022-07-29T14:14:37;3.33;;;2.60;;
11111;SDS011;5609;49.466;8.468;2022-07-29T14:17:05;4.77;;;2.80;;
11111;SDS011;5609;49.466;8.468;2022-07-29T14:19:32;2.67;;;2.30;;
11111;SDS011;5609;49.466;8.468;2022-07-29T14:22:02;3.27;;;2.40;;
11111;SDS011;5609;49.466;8.468;2022-07-29T14:24:30;4.37;;;2.50;;
11111;SDS011;5609;49.466;8.468;2022-07-29T14:26:57;3.38;;;2.63;;
11111;SDS011;5609;49.466;8.468;2022-07-29T14:29:24;4.53;;;2.50;;
11111;SDS011;5609;49.466;8.468;2022-07-29T14:31:51;3.90;;;2.50;;
11111;SDS011;5609;49.466;8.468;2022-07-29T14:34:19;3.42;;;2.25;;
11111;SDS011;5609;49.466;8.468;2022-07-29T14:36:46;3.92;;;2.47;;
11111;SDS011;5609;49.466;8.468;2022-07-29T14:39:13;2.83;;;2.53;;
11111;SDS011;5609;49.466;8.468;2022-07-29T14:41:41;2.72;;;2.30;;
11111;SDS011;5609;49.466;8.468;2022-07-29T14:44:09;4.53;;;2.55;;
11111;SDS011;5609;49.466;8.468;2022-07-29T14:46:35;3.63;;;2.30;;
11111;SDS011;5609;49.466;8.468;2022-07-29T14:49:02;2.30;;;2.10;;
11111;SDS011;5609;49.466;8.468;2022-07-29T14:51:31;2.70;;;2.30;;
11111;SDS011;5609;49.466;8.468;2022-07-29T14:53:59;4.40;;;2.13;;
11111;SDS011;5609;49.466;8.468;2022-07-29T14:56:25;2.80;;;2.33;;
11111;SDS011;5609;49.466;8.468;2022-07-29T14:58:54;4.03;;;2.10;;
11111;SDS011;5609;49.466;8.468;2022-07-29T15:01:22;2.70;;;2.30;;
11111;SDS011;5609;49.466;8.468;2022-07-29T15:03:49;3.00;;;2.20;;
11111;SDS011;5609;49.466;8.468;2022-07-29T15:06:16;2.20;;;2.00;;
11111;SDS011;5609;49.466;8.468;2022-07-29T15:08:44;3.03;;;2.00;;
11111;SDS011;5609;49.466;8.468;2022-07-29T15:11:11;4.05;;;2.08;;
11111;SDS011;5609;49.466;8.468;2022-07-29T15:13:38;4.60;;;2.13;;
11111;SDS011;5609;49.466;8.468;2022-07-29T15:16:05;4.78;;;2.10;;
11111;SDS011;5609;49.466;8.468;2022-07-29T15:18:32;3.20;;;2.13;;
11111;SDS011;5609;49.466;8.468;2022-07-29T15:20:59;2.70;;;2.10;;
11111;SDS011;5609;49.466;8.468;2022-07-29T15:23:27;2.20;;;1.97;;
11111;SDS011;5609;49.466;8.468;2022-07-29T15:25:55;2.97;;;2.40;;
11111;SDS011;5609;49.466;8.468;2022-07-29T15:28:22;3.80;;;1.92;;
11111;SDS011;5609;49.466;8.468;2022-07-29T15:30:48;2.78;;;2.00;;
11111;SDS011;5609;49.466;8.468;2022-07-29T15:33:15;4.35;;;2.10;;
11111;SDS011;5609;49.466;8.468;2022-07-29T15:35:42;2.88;;;1.80;;